52.91.245.237 @ 2018/12/17 21:21:13
FIS World Cup 2019 - Edizione n. 53  della Coppa del Mondo di Sci Alpino

il Ciclismo
in cifre

Il Ciclismo in Cifre - Mondiali su strada

Tutti i numeri del Ciclismo: Bergen 2017, ordine d'arrivo ufficiale della gara riservata ai professionisti elite della 84ª edizione dei Campionati Mondiali su strada disputata domenica 24 Settembre.

I dati presenti in questo sito sono stati verificati con le fonti ufficiali al momento della pubblicazione e salvo casi eccezionali non sottoposti a successivi controlli. Leggere le FAQ per ulteriori informazioni.

Classifiche, graduatorie ed ordini d'arrivo presentati in questo sito adottano la convenzione UCI che prevede un numero d'ordine progressivo anche in caso di parità di posizioni o tempi di gara.

Potete contattare il Cybernauta via e-mail: Mailto@cybernauta

Il Cybernauta è presente anche su Twitter: Twitter@cybernauta

Si ricorda che le risposte alle domande più frequenti sono disponibili nelle FAQ.

Campionati Mondiali 2017

Ordine di arrivo professionisti elite

1. SAGAN PeterSVK06:28:11+
2. KRISTOFF AlexanderNOR06:28:1100:00
3. MATTHEWS MichaelAUS06:28:1100:00
4. TRENTIN MatteoITA06:28:1100:00
5. SWIFT BenGBR06:28:1100:00
6. VAN AVERMAET GregBEL06:28:1100:00
7. ALBASINI MichaelSUI06:28:1100:00
8. GAVIRIA RENDON FernandoCOL06:28:1100:00
9. LUTSENKO AlexeyKAZ06:28:1100:00
10. ALAPHILIPPE JulianFRA06:28:1100:00
11. KWIATKOWSKI MichalPOL06:28:1100:00
12. KRAGH ANDERSEN SřrenDEN06:28:1100:00
13. GALLOPIN TonyFRA06:28:1100:00
14. ŠTYBAR ZdenekCZE06:28:1100:00
15. KIRYIENKA VasilBLR06:28:1100:00
16. KUZNETSOV ViacheslavRUS06:28:1100:00
17. GILBERT PhilippeBEL06:28:1100:00
18. CHERNETSKI SergeiRUS06:28:1100:00
19. FARIA DA COSTA Rui AlbertoPOR06:28:1100:00
20. GESCHKE SimonGER06:28:1100:00
21. VALGREN ANDERSEN MichaelDEN06:28:1100:00
22. PÖSTLBERGER LukasAUT06:28:1100:00
23. ZAKARIN IlnurRUS06:28:1100:00
24. TERPSTRA NikiNED06:28:1100:00
25. DUMOULIN TomNED06:28:1100:00
26. MARTIN DanielIRL06:28:1100:00
27. URAN RigobertoCOL06:28:1600:05
28. BETTIOL AlbertoITA06:28:1600:05
29. NIELSEN Magnus CortDEN06:28:3800:27
30. HAGEN Edvald BoassonNOR06:29:1501:04
31. CASTROVIEJO JonathanESP06:29:1501:04
32. SIMON JulienFRA06:29:1501:04
33. ROCHE NicolasIRL06:29:1501:04
34. MOLLEMA BaukeNED06:29:3101:20
35. BOIVIN GuillaumeCAN06:29:3101:20
36. KENNAUGH PeterGBR06:29:3301:22
37. BARGUIL WarrenFRA06:29:3401:23
38. ULISSI DiegoITA06:29:3401:23
39. JANSE VAN RENSBURG ReinardtRSA06:30:4302:32
40. ARNDT NikiasGER06:30:4302:32
41. SCHÄR MichaelSUI06:30:4302:32
42. PIBERNIK LukaSLO06:30:4302:32
43. SARAMOTINS AleksejsLAT06:30:4302:32
44. KÜNG StefanSUI06:30:4302:32
45. SAGAN JurajSVK06:30:4302:32
46. ARASHIRO YukiyaJPN06:30:4302:32
47. BURGHARDT MarcusGER06:30:4302:32
48. KREUZIGER RomanCZE06:30:4302:32
49. IMPEY DarylRSA06:30:4302:32
50. DILLIER SilvanSUI06:30:4302:32
51. LUDVIGSSON TobiasSWE06:30:4302:32
52. GOLAS MichalPOL06:30:4302:32
53. HOWES AlexUSA06:30:4302:32
54. ERVITI ImanolESP06:30:4302:32
55. OLIVEIRA NelsonPOR06:30:4302:32
56. EIKING Odd ChristianNOR06:30:4302:32
57. VIVIANI EliaITA06:30:4302:32
58. ROJAS JoseESP06:30:4302:32
59. COLBRELLI SonnyITA06:30:4302:32
60. CLARKE SimonAUS06:30:4302:32
61. POLANC JanSLO06:30:4302:32
62. DOCKER MitchellAUS06:30:4302:32
63. SEPULVEDA EduardoARG06:30:4302:32
64. MACHADO TiagoPOR06:30:4302:32
65. VILELA RicardoPOR06:30:4302:32
66. SANCHEZ Luis LeónESP06:30:4302:32
67. PANTANO GOMEZ JarlinsonCOL06:30:4302:32
68. DENIFL StefanAUT06:30:4302:32
69. MARTIN TonyGER06:30:4302:32
70. DE LA CRUZ MELGAREJO DavidESP06:30:4302:32
71. JUNGELS BobLUX06:30:4302:32
72. TEUNS DylanBEL06:30:4302:32
73. NAESEN OliverBEL06:30:4302:32
74. LANGEVELD SebastianNED06:30:4302:32
75. MORKOV MichaelDEN06:30:4302:32
76. JUUL JENSEN ChristopherDEN06:30:4302:32
77. LAENGEN Vegard StakeNOR06:30:4302:32
78. GRIVKO AndreyUKR06:31:2403:13
79. BÁRTA JanCZE06:31:2403:13
80. BIZHIGITOV ZhandosKAZ06:31:2403:13
81. HOULE HugoCAN06:31:2403:13
82. POLJANSKI PawelPOL06:31:2403:13
83. BERHANE NatnaelERI06:31:2403:13
84. ROUX AnthonyFRA06:31:2403:13
85. CALMEJANE LilianFRA06:31:2403:13
86. GAUTIER CyrilFRA06:31:2403:13
87. KEUKELEIRE JensBEL06:31:2403:13
88. PUCCIO SalvatoreITA06:31:2403:13
89. STUYVEN JasperBEL06:34:0005:49
90. MARTENS PaulGER06:34:0005:49
91. MOHORIC MatejSLO06:34:0005:49
92. MEZGEC LukaSLO06:34:0005:49
93. HAUSSLER HeinrichAUS06:34:0005:49
94. HAIG JackAUS06:34:0005:49
95. BENOOT TiesjBEL06:34:4406:33
96. WISNIOWSKI LukaszPOL06:34:4806:37
97. THWAITES ScottGBR06:35:4407:33
98. CHRISTIAN MarkGBR06:35:4407:33
99. ZABEL RickGER06:35:4407:33
100. LIENHARD FabianSUI06:35:4407:33
101. JANSEN Amund GrřndahlNOR06:35:4407:33
102. KONOVALOVAS IgnatasLTU06:35:4407:33
103. MAS BONET Luis GuillermoESP06:35:4407:33
104. BOOM LarsNED06:35:4607:35
105. BENNATI DanieleITA06:35:4607:35
106. HERRADA JesusESP06:35:4607:35
107. IZAGUIRRE INSAUSTI GorkaESP06:35:4607:35
108. SOLER MarcESP06:35:4607:35
109. REIJNEN KielUSA06:37:3209:21
110. WELLENS TimBEL06:37:3209:21
111. RAST GregorySUI06:37:3509:24
112. HALLER MarcoAUT06:37:3509:24
113. DE MARCHI AlessandroITA06:37:3709:26
114. POLITT NilsGER06:38:3210:21
115. HENAO MONTOYA Sergio LuisCOL06:38:3210:21
116. SÜTTERLIN JashaGER06:38:3210:21
117. GEOGHEGAN HART TaoGBR06:38:3210:21
118. FRÖHLINGER JohannesGER06:38:3210:21
119. DE KORT KoenNED06:38:3210:21
120. DUCHESNE AntoineCAN06:38:3210:21
121. ROGLI? PrimožSLO06:38:3210:21
122. LE GAC OlivierFRA06:38:3210:21
123. RÄIM MihkelEST06:40:0411:53
124. ROSSKOPF JosephUSA06:40:0411:53
125. HOELGAARD DanielNOR06:40:0411:53
126. MULLEN RyanIRL06:40:0411:53
127. POLNICKÝ JiríCZE06:40:0411:53
128. GRUZDEV DmitriyKAZ06:40:0411:53
129. SMITH DionNZL06:40:0411:53
130. GONÇALVES JoséPOR06:40:0411:53
131. RICHEZE Maximiliano ArielARG06:40:0411:53
132. DRUCKER Jean-PierreLUX06:40:0411:53
DNF. KORSĆTH TrulsNOR
DNF. KOLÁR MichalSVK
DNF. BAUER JackNZL
DNF. DURBRIDGE LukeAUS
DNF. POELS WoutNED
DNF. DUNNE ConorIRL
DNF. AMADOR AndreyCRC
DNF. QUINTANA NairoCOL
DNF. BAZHKOU StanislauBLR
DNF. GUERREIRO RúbenPOR
DNF. VAN GARDEREN TejayUSA
DNF. NEILANDS KristsLAT
DNF. PATERSKI MaciejPOL
DNF. VAN EMDEN JosNED
DNF. SUTHERLAND RoryAUS
DNF. MOLANO BENAVIDES Juan SebastianCOL
DNF. MC CARTHY JayAUS
DNF. VERMEULEN AlexeyUSA
DNF. BASKA ErikSVK
DNF. ?ANECKY MarekSVK
DNF. BODNAR MaciejPOL
DNF. HENAO GOMEZ SebastianCOL
DNF. KIRSCH AlexLUX
DNF. PORSEV AlexanderRUS
DNF. SMIT Willem JakobusRSA
DNF. TRATNIK JanSLO
DNF. GOUGEARD AlexisFRA
DNF. BLYTHE AdamGBR
DNF. DOULL OwainGBR
DNF. DIBBEN JonathanGBR
DNF. MCKENNA SeanIRL
DNF. VERMOTE JulienBEL
DNF. MAGNUSSON KimSWE
DNF. VAKO? PetrCZE
DNF. SKJERPING KristofferNOR
DNF. JENSEN AugustNOR
DNF. BELKOV MaximRUS
DNF. SOTO MARTINEZ Nelson AndresCOL
DNF. RESTREPO VALENCIA JhonatanCOL
DNF. VAN POPPEL DannyNED
DNF. JAKIN AloEST
DNF. NŐMMELA AkselEST
DNF. TVETCOV SergheiROU
DNF. PEDERSEN MadsDEN
DNF. KASTRANTAS CharalamposGRE
DNF. MRAOUNI SalaheddineMAR
DNF. TYBOR PatrikSVK
DNF. STANNARD IanGBR
DNF. SAVITCKII IvanRUS
DNF. ?ERNÝ JosefCZE
DNF. ASADOV ElchinAZE
DNF. RYBARUK KostyantynUKR
DNF. BROWN NathanUSA
DNF. NDAYISENGA ValensRWA
DNF. DEBESAY MeksebERI
DNF. ZHUPA EugertALB
DNF. SOBAL YauhenBLR
DNF. CHEUNG King LokHKG
DNF. BEVIN PatrickNZL
DNF. MANNINEN MattiFIN
DNF. HAYMAN MathewAUS
DNF. GHEBREIGZABHIER WERKILUL AmanuelERI
DSQ. MOSCON GianniITA
DNS. SHAW DamienIRL

Aggiornamento: 2017/09/24 19:50:30

K16PC71-ciclismo